createdAt,value
2018-08-22T00:00:54.064Z,99496.33
2018-08-22T00:03:22.613Z,99498.53
2018-08-22T00:05:51.123Z,99496.89
2018-08-22T00:08:24.633Z,99502.02
2018-08-22T00:10:53.177Z,99495.55
2018-08-22T00:13:21.676Z,99503.16
2018-08-22T00:15:50.208Z,99496.86
2018-08-22T00:18:18.732Z,99497.20
2018-08-22T00:20:47.268Z,99494.55
2018-08-22T00:23:15.778Z,99499.92
2018-08-22T00:25:44.396Z,99499.25
2018-08-22T00:28:12.897Z,99490.94
2018-08-22T00:30:41.419Z,99486.91
2018-08-22T00:33:09.940Z,99486.24
2018-08-22T00:35:38.473Z,99481.41
2018-08-22T00:38:06.984Z,99484.43
2018-08-22T00:40:35.516Z,99478.97
2018-08-22T00:43:04.192Z,99479.99
2018-08-22T00:45:32.716Z,99481.24
2018-08-22T00:48:01.210Z,99479.52
2018-08-22T00:50:29.732Z,99481.92
2018-08-22T00:52:58.251Z,99474.48
2018-08-22T00:55:26.817Z,99474.95
2018-08-22T00:57:55.322Z,99475.39
2018-08-22T01:00:23.849Z,99477.64
2018-08-22T01:02:52.385Z,99475.60
2018-08-22T01:05:21.712Z,99477.05
2018-08-22T01:07:50.200Z,99478.03
2018-08-22T01:10:19.332Z,99475.67
2018-08-22T01:12:47.900Z,99474.44
2018-08-22T01:15:16.636Z,99471.20
2018-08-22T01:17:45.138Z,99466.86
2018-08-22T01:20:20.312Z,99466.19
2018-08-22T01:22:48.812Z,99463.61
2018-08-22T01:25:17.340Z,99462.91
2018-08-22T01:27:46.287Z,99465.45
2018-08-22T01:30:14.820Z,99463.18
2018-08-22T01:32:43.329Z,99463.18
2018-08-22T01:35:12.192Z,99469.00
2018-08-22T01:37:40.696Z,99467.61
2018-08-22T01:40:09.197Z,99467.52
2018-08-22T01:42:37.724Z,99462.91
2018-08-22T01:45:06.339Z,99468.48
2018-08-22T01:47:34.921Z,99467.77
2018-08-22T01:50:04.537Z,99468.26
2018-08-22T01:52:33.095Z,99463.33
2018-08-22T01:55:01.644Z,99464.47
2018-08-22T01:57:30.380Z,99463.81
2018-08-22T01:59:58.900Z,99458.03
2018-08-22T02:02:27.448Z,99459.89
2018-08-22T02:04:55.984Z,99461.30
2018-08-22T02:07:24.536Z,99460.05
2018-08-22T02:09:53.045Z,99463.91
2018-08-22T02:12:22.444Z,99459.61
2018-08-22T02:14:50.960Z,99458.52
2018-08-22T02:17:19.507Z,99457.61
2018-08-22T02:19:48.020Z,99465.23
2018-08-22T02:22:16.578Z,99457.16
2018-08-22T02:24:45.114Z,99461.94
2018-08-22T02:27:13.669Z,99459.28
2018-08-22T02:29:42.188Z,99454.52
2018-08-22T02:32:10.716Z,99461.70
2018-08-22T02:34:39.228Z,99460.13
2018-08-22T02:37:07.783Z,99460.26
2018-08-22T02:39:36.304Z,99466.19
2018-08-22T02:42:05.096Z,99471.09
2018-08-22T02:44:34.676Z,99464.44
2018-08-22T02:47:03.224Z,99465.09
2018-08-22T02:49:31.741Z,99460.34
2018-08-22T02:52:00.294Z,99465.11
2018-08-22T02:54:28.865Z,99464.94
2018-08-22T02:56:57.425Z,99461.13
2018-08-22T02:59:25.961Z,99462.78
2018-08-22T03:01:54.572Z,99455.33
2018-08-22T03:04:23.101Z,99459.55
2018-08-22T03:06:51.680Z,99458.56
2018-08-22T03:09:20.209Z,99462.41
2018-08-22T03:11:48.757Z,99461.02
2018-08-22T03:14:17.324Z,99456.51
2018-08-22T03:16:45.868Z,99457.17
2018-08-22T03:19:14.454Z,99461.79
2018-08-22T03:21:42.984Z,99456.56
2018-08-22T03:24:11.935Z,99459.83
2018-08-22T03:26:40.505Z,99456.61
2018-08-22T03:29:09.077Z,99450.06
2018-08-22T03:31:37.872Z,99456.00
2018-08-22T03:34:06.533Z,99453.70
2018-08-22T03:36:35.286Z,99454.99
2018-08-22T03:39:04.756Z,99453.57
2018-08-22T03:41:33.294Z,99450.12
2018-08-22T03:44:01.852Z,99448.34
2018-08-22T03:46:30.389Z,99447.06
2018-08-22T03:48:58.954Z,99449.28
2018-08-22T03:51:27.484Z,99451.02
2018-08-22T03:53:56.180Z,99456.00
2018-08-22T03:56:24.728Z,99456.78
2018-08-22T03:58:53.325Z,99454.91
2018-08-22T04:01:21.837Z,99453.19
2018-08-22T04:03:50.466Z,99453.19
2018-08-22T04:06:18.994Z,99451.55
2018-08-22T04:08:47.548Z,99452.58
2018-08-22T04:11:16.069Z,99452.39
2018-08-22T04:13:51.400Z,99459.39
2018-08-22T04:16:19.915Z,99454.80
2018-08-22T04:18:48.726Z,99458.44
2018-08-22T04:21:17.394Z,99460.59
2018-08-22T04:23:45.944Z,99459.88
2018-08-22T04:26:14.448Z,99461.70
2018-08-22T04:28:43.007Z,99460.25
2018-08-22T04:31:11.604Z,99462.71
2018-08-22T04:33:40.157Z,99462.05
2018-08-22T04:36:08.701Z,99469.83
2018-08-22T04:38:37.258Z,99467.30
2018-08-22T04:41:05.833Z,99462.44
2018-08-22T04:43:34.404Z,99463.08
2018-08-22T04:46:03.929Z,99462.78
2018-08-22T04:48:32.453Z,99466.11
2018-08-22T04:51:01.291Z,99464.84
2018-08-22T04:53:29.841Z,99475.09
2018-08-22T04:55:58.414Z,99474.27
2018-08-22T04:58:26.931Z,99470.30
2018-08-22T05:00:55.517Z,99466.70
2018-08-22T05:03:24.292Z,99474.83
2018-08-22T05:05:52.858Z,99474.20
2018-08-22T05:08:22.382Z,99471.22
2018-08-22T05:10:50.946Z,99469.98
2018-08-22T05:13:19.497Z,99471.60
2018-08-22T05:15:48.066Z,99475.03
2018-08-22T05:18:16.592Z,99479.38
2018-08-22T05:20:45.145Z,99480.29
2018-08-22T05:23:13.944Z,99479.70
2018-08-22T05:25:42.613Z,99480.55
2018-08-22T05:28:11.439Z,99479.88
2018-08-22T05:30:40.110Z,99480.38
2018-08-22T05:33:09.090Z,99485.45
2018-08-22T05:35:37.684Z,99483.02
2018-08-22T05:38:06.480Z,99484.41
2018-08-22T05:40:35.738Z,99485.70
2018-08-22T05:43:04.285Z,99484.98
2018-08-22T05:45:32.853Z,99484.50
2018-08-22T05:48:01.384Z,99485.64
2018-08-22T05:50:29.956Z,99486.36
2018-08-22T05:52:58.480Z,99487.57
2018-08-22T05:55:27.089Z,99486.02
2018-08-22T05:57:55.612Z,99491.00
2018-08-22T06:00:24.161Z,99493.95
2018-08-22T06:02:52.687Z,99497.30
2018-08-22T06:05:21.578Z,99499.83
2018-08-22T06:07:50.493Z,99497.23
2018-08-22T06:10:19.033Z,99496.66
2018-08-22T06:12:47.591Z,99499.84
2018-08-22T06:15:16.129Z,99498.82
2018-08-22T06:17:44.723Z,99502.23
2018-08-22T06:20:13.288Z,99499.45
2018-08-22T06:22:41.824Z,99498.69
2018-08-22T06:25:10.341Z,99496.63
2018-08-22T06:27:38.896Z,99499.62
2018-08-22T06:30:09.128Z,99502.36
2018-08-22T06:32:37.701Z,99495.63
2018-08-22T06:35:06.341Z,99486.66
2018-08-22T06:37:35.946Z,99484.56
2018-08-22T06:40:05.228Z,99478.89
2018-08-22T06:42:33.812Z,99483.95
2018-08-22T06:45:02.416Z,99485.64
2018-08-22T06:47:30.993Z,99485.80
2018-08-22T06:49:59.512Z,99488.77
2018-08-22T06:52:28.069Z,99489.70
2018-08-22T06:54:56.636Z,99496.26
2018-08-22T06:57:25.249Z,99496.22
2018-08-22T06:59:53.791Z,99490.10
2018-08-22T07:02:22.431Z,99487.69
2018-08-22T07:04:50.936Z,99493.20
2018-08-22T07:07:19.513Z,99492.17
2018-08-22T07:09:48.052Z,99497.69
2018-08-22T07:12:16.622Z,99494.80
2018-08-22T07:14:45.169Z,99496.28
2018-08-22T07:17:13.753Z,99501.92
2018-08-22T07:19:42.291Z,99496.98
2018-08-22T07:22:10.912Z,99490.54
2018-08-22T07:24:39.456Z,99493.98
2018-08-22T07:27:08.056Z,99491.28
2018-08-22T07:29:36.645Z,99491.50
2018-08-22T07:32:05.215Z,99492.89
2018-08-22T07:34:33.748Z,99492.95
2018-08-22T07:37:02.308Z,99492.98
2018-08-22T07:39:30.879Z,99498.49
2018-08-22T07:41:59.514Z,99494.91
2018-08-22T07:44:28.092Z,99493.47
2018-08-22T07:46:56.629Z,99499.33
2018-08-22T07:49:25.216Z,99501.89
2018-08-22T07:51:53.813Z,99502.81
2018-08-22T07:54:28.644Z,99501.62
2018-08-22T07:56:57.259Z,99504.33
2018-08-22T07:59:25.860Z,99507.56
2018-08-22T08:01:54.491Z,99501.66
2018-08-22T08:04:23.021Z,99495.01
2018-08-22T08:06:51.564Z,99495.35
2018-08-22T08:09:20.129Z,99504.73
2018-08-22T08:11:48.685Z,99496.58
2018-08-22T08:14:17.255Z,99492.07
2018-08-22T08:16:45.801Z,99503.13
2018-08-22T08:19:14.689Z,99494.94
2018-08-22T08:21:43.237Z,99492.93
2018-08-22T08:24:11.804Z,99486.47
2018-08-22T08:26:40.340Z,99480.45
2018-08-22T08:29:08.922Z,99483.27
2018-08-22T08:31:37.888Z,99487.78
2018-08-22T08:34:06.458Z,99482.25
2018-08-22T08:36:35.001Z,99477.03
2018-08-22T08:39:03.849Z,99479.05
2018-08-22T08:41:32.467Z,99477.56
2018-08-22T08:44:01.029Z,99473.75
2018-08-22T08:46:33.041Z,99472.00
2018-08-22T08:49:02.012Z,99470.23
2018-08-22T08:51:30.664Z,99471.26
2018-08-22T08:53:59.274Z,99464.84
2018-08-22T08:56:27.800Z,99472.26
2018-08-22T08:58:56.388Z,99471.88
2018-08-22T09:01:24.921Z,99474.25
2018-08-22T09:03:53.528Z,99475.08
2018-08-22T09:06:22.047Z,99474.34
2018-08-22T09:08:50.642Z,99476.00
2018-08-22T09:11:19.178Z,99480.24
2018-08-22T09:13:53.037Z,99480.94
2018-08-22T09:16:21.932Z,99477.27
2018-08-22T09:18:50.507Z,99477.56
2018-08-22T09:21:19.080Z,99483.25
2018-08-22T09:23:47.616Z,99483.16
2018-08-22T09:26:16.177Z,99476.34
2018-08-22T09:28:45.560Z,99478.98
2018-08-22T09:31:14.244Z,99477.91
2018-08-22T09:33:42.811Z,99466.68
2018-08-22T09:36:11.386Z,99466.69
2018-08-22T09:38:43.522Z,99464.86
2018-08-22T09:41:12.278Z,99448.58
2018-08-22T09:43:40.809Z,99459.17
2018-08-22T09:46:09.640Z,99449.02
2018-08-22T09:48:38.217Z,99444.47
2018-08-22T09:51:07.012Z,99445.66
2018-08-22T09:53:35.584Z,99442.53
2018-08-22T09:56:04.239Z,99441.63
2018-08-22T09:58:32.944Z,99434.28
2018-08-22T10:01:06.905Z,99436.25
2018-08-22T10:03:53.215Z,99434.71
2018-08-22T10:06:30.009Z,99442.47
2018-08-22T10:09:02.360Z,99427.23
2018-08-22T10:11:30.932Z,99425.61
2018-08-22T10:14:03.465Z,99423.70
2018-08-22T10:16:32.060Z,99424.36
2018-08-22T10:19:00.637Z,99427.56
2018-08-22T10:21:29.269Z,99421.03
2018-08-22T10:23:57.804Z,99424.05
2018-08-22T10:26:26.389Z,99420.23
2018-08-22T10:28:55.176Z,99419.18
2018-08-22T10:31:24.510Z,99417.55
2018-08-22T10:33:53.205Z,99422.37
2018-08-22T10:36:21.784Z,99412.86
2018-08-22T10:38:50.366Z,99405.33
2018-08-22T10:41:18.953Z,99408.40
2018-08-22T10:43:47.568Z,99409.55
2018-08-22T10:46:16.148Z,99415.31
2018-08-22T10:48:44.688Z,99416.45
2018-08-22T10:51:13.267Z,99405.79
2018-08-22T10:53:41.849Z,99403.55
2018-08-22T10:56:10.437Z,99403.65
2018-08-22T10:58:39.007Z,99406.27
2018-08-22T11:01:07.553Z,99402.23
2018-08-22T11:03:36.106Z,99406.77
2018-08-22T11:06:04.661Z,99402.53
2018-08-22T11:08:33.237Z,99398.49
2018-08-22T11:11:01.776Z,99393.09
2018-08-22T11:13:30.356Z,99391.41
2018-08-22T11:15:58.994Z,99397.63
2018-08-22T11:18:27.586Z,99391.15
2018-08-22T11:20:55.516Z,99392.04
2018-08-22T11:23:35.261Z,99386.64
2018-08-22T11:26:15.037Z,99385.74
2018-08-22T11:28:54.809Z,99390.22
2018-08-22T11:31:34.521Z,99378.55
2018-08-22T11:34:14.389Z,99383.16
2018-08-22T11:36:49.301Z,99380.62
2018-08-22T11:39:17.870Z,99382.67
2018-08-22T11:41:46.429Z,99372.41
2018-08-22T11:44:15.068Z,99373.18
